Time;durP1;ratioP1;P1;durP2;ratioP2;P2;SDS_P1;SDS_P2;PMS_P1;PMS_P2;Temp;Humidity;BMP_temperature;BMP_pressure;BME280_temperature;BME280_humidity;BME280_pressure;Samples;Min_cycle;Max_cycle;Signal;HPM_P1;HPM_P2
2023/06/08 00:00:10;;;;;;;7.03;4.53;;;;;;;18.44;76.80;94665.16;5068731;28;20668;-43
2023/06/08 00:02:37;;;;;;;5.00;4.00;;;;;;;18.41;76.85;94662.94;5068337;28;20637;-45
2023/06/08 00:05:05;;;;;;;4.47;3.87;;;;;;;17.91;76.91;94594.78;5068667;28;20190;-44
2023/06/08 00:07:34;;;;;;;12.57;7.90;;;;;;;18.38;76.91;94672.88;5068461;28;20183;-44
2023/06/08 00:10:01;;;;;;;5.53;3.77;;;;;;;18.35;76.98;94666.28;5068810;28;20572;-44
2023/06/08 00:12:28;;;;;;;5.00;3.63;;;;;;;18.34;76.96;94669.03;5069850;28;20224;-44
2023/06/08 00:14:55;;;;;;;6.80;4.00;;;;;;;18.30;76.95;94668.59;5072025;28;20198;-44
2023/06/08 00:17:24;;;;;;;8.47;3.67;;;;;;;18.27;77.17;94671.59;5071496;28;20261;-43
2023/06/08 00:19:52;;;;;;;5.83;4.27;;;;;;;18.12;77.30;94661.28;5071884;28;20273;-44
2023/06/08 00:22:21;;;;;;;3.70;3.40;;;;;;;18.17;77.45;94674.47;5071550;28;20377;-44
2023/06/08 00:24:47;;;;;;;6.37;4.03;;;;;;;18.12;77.39;94681.19;5072158;28;20228;-45
2023/06/08 00:27:14;;;;;;;6.00;4.33;;;;;;;18.10;77.38;94678.78;5071235;28;20200;-44
2023/06/08 00:29:41;;;;;;;5.57;4.50;;;;;;;18.01;77.40;94675.53;5071892;28;20206;-43
2023/06/08 00:32:08;;;;;;;3.97;3.43;;;;;;;17.99;77.63;94679.25;5072456;28;20190;-44
2023/06/08 00:34:36;;;;;;;4.97;3.87;;;;;;;17.98;77.48;94680.25;5071484;28;20607;-44
2023/06/08 00:37:03;;;;;;;4.23;3.50;;;;;;;17.95;77.63;94684.00;5071313;28;20218;-43
2023/06/08 00:39:30;;;;;;;5.37;3.57;;;;;;;17.95;77.57;94678.03;5071019;28;20617;-45
2023/06/08 00:41:57;;;;;;;4.10;3.53;;;;;;;17.95;77.52;94673.66;5071477;28;20194;-44
2023/06/08 00:44:24;;;;;;;4.27;3.40;;;;;;;17.92;77.61;94666.28;5071448;28;20634;-44
2023/06/08 00:46:50;;;;;;;4.17;3.67;;;;;;;17.89;77.61;94664.03;5071902;28;20178;-44
2023/06/08 00:49:19;;;;;;;4.73;3.40;;;;;;;17.87;77.83;94671.16;5071064;28;20244;-44
2023/06/08 00:51:48;;;;;;;3.97;3.57;;;;;;;17.69;77.84;94643.09;5071450;28;20183;-44
2023/06/08 00:54:16;;;;;;;5.00;3.57;;;;;;;17.81;77.80;94658.97;5071123;28;20252;-44
2023/06/08 00:56:48;;;;;;;3.90;3.50;;;;;;;17.76;77.99;94666.50;5071153;28;20700;-44
2023/06/08 00:59:15;;;;;;;3.50;3.17;;;;;;;17.72;77.88;94657.47;5070961;28;20205;-44
2023/06/08 01:01:41;;;;;;;9.50;3.63;;;;;;;17.67;77.86;94663.19;5071579;28;20200;-45
2023/06/08 01:04:09;;;;;;;5.73;3.40;;;;;;;17.66;78.06;94658.16;5071098;28;20198;-44
2023/06/08 01:06:36;;;;;;;5.00;3.67;;;;;;;17.60;78.12;94658.91;5071271;28;20219;-44
2023/06/08 01:09:16;;;;;;;5.57;4.07;;;;;;;17.58;78.45;94655.72;5070713;28;20193;-40
2023/06/08 01:11:52;;;;;;;9.50;4.63;;;;;;;17.35;78.77;94640.31;5071169;28;20209;-44
2023/06/08 01:14:28;;;;;;;9.00;3.80;;;;;;;17.47;79.02;94651.81;5070764;28;20642;-42
2023/06/08 01:17:00;;;;;;;5.07;3.93;;;;;;;17.43;79.22;94661.69;5070560;28;20270;-42
2023/06/08 01:19:38;;;;;;;10.57;3.93;;;;;;;17.39;79.43;94663.03;5070807;28;20190;-44
2023/06/08 01:22:22;;;;;;;4.63;3.73;;;;;;;17.35;79.71;94661.00;5070750;28;20229;-44
2023/06/08 01:24:52;;;;;;;6.13;4.03;;;;;;;17.30;80.14;94667.50;5069587;28;20183;-44
2023/06/08 01:27:20;;;;;;;4.77;3.30;;;;;;;17.25;80.19;94666.44;5070710;28;20538;-44
2023/06/08 01:29:48;;;;;;;9.07;3.73;;;;;;;17.22;80.37;94670.19;5069866;28;20198;-44
2023/06/08 01:32:15;;;;;;;5.70;3.90;;;;;;;17.11;81.10;94667.25;5070508;28;20190;-45
2023/06/08 01:34:42;;;;;;;5.13;3.60;;;;;;;17.10;80.89;94666.47;5070687;28;20277;-45
2023/06/08 01:37:14;;;;;;;6.47;3.40;;;;;;;17.04;81.01;94661.97;5070278;28;20762;-45
2023/06/08 01:39:48;;;;;;;7.37;3.77;;;;;;;17.03;81.27;94668.94;5070322;28;20927;-44
2023/06/08 01:42:20;;;;;;;4.10;3.40;;;;;;;17.01;81.17;94670.09;5070036;28;20240;-44
2023/06/08 01:44:53;;;;;;;5.93;3.50;;;;;;;16.97;81.36;94664.50;5070450;28;20195;-45
2023/06/08 01:47:23;;;;;;;5.47;3.07;;;;;;;16.95;81.40;94663.06;5070924;28;20190;-45
2023/06/08 01:49:52;;;;;;;3.20;2.90;;;;;;;16.86;81.58;94667.50;5069759;28;20630;-44
2023/06/08 01:52:20;;;;;;;4.23;3.20;;;;;;;16.81;81.87;94659.47;5070097;28;20197;-42
2023/06/08 01:54:47;;;;;;;7.10;3.90;;;;;;;16.79;81.64;94669.97;5069923;28;20676;-45
2023/06/08 01:57:14;;;;;;;4.43;3.40;;;;;;;16.79;81.70;94662.22;5069528;28;20213;-45
2023/06/08 01:59:42;;;;;;;3.60;3.27;;;;;;;16.81;81.65;94662.06;5069917;28;20697;-44
2023/06/08 02:02:09;;;;;;;4.80;3.10;;;;;;;16.65;82.02;94644.91;5070070;28;20244;-44
2023/06/08 02:04:35;;;;;;;4.87;3.67;;;;;;;16.77;81.84;94663.41;5069980;28;20202;-43
2023/06/08 02:07:02;;;;;;;5.50;3.53;;;;;;;16.77;81.74;94658.22;5069984;28;20190;-45
2023/06/08 02:09:29;;;;;;;4.83;2.90;;;;;;;16.75;81.83;94655.00;5069902;28;20190;-44
2023/06/08 02:12:04;;;;;;;4.03;3.30;;;;;;;16.76;82.21;94651.47;5069438;28;20194;-44
2023/06/08 02:14:31;;;;;;;4.47;3.63;;;;;;;16.74;82.35;94656.78;5069603;28;20792;-44
2023/06/08 02:17:00;;;;;;;6.00;3.50;;;;;;;16.71;82.62;94651.97;5069690;28;20230;-44
2023/06/08 02:19:27;;;;;;;9.50;3.40;;;;;;;16.70;82.52;94652.94;5069510;28;20236;-43
2023/06/08 02:21:54;;;;;;;5.13;3.53;;;;;;;16.69;82.44;94656.50;5069683;28;20639;-46
2023/06/08 02:24:21;;;;;;;4.43;3.43;;;;;;;16.67;82.77;94652.50;5069942;28;20642;-44
2023/06/08 02:26:51;;;;;;;5.00;3.70;;;;;;;16.66;82.78;94656.03;5069489;28;20186;-47
2023/06/08 02:29:18;;;;;;;4.17;3.20;;;;;;;16.61;83.38;94653.19;5069960;28;20603;-44
2023/06/08 02:31:45;;;;;;;4.93;3.13;;;;;;;16.58;83.54;94656.09;5069426;28;20190;-44
2023/06/08 02:34:13;;;;;;;7.60;3.93;;;;;;;16.57;83.43;94650.16;5069385;28;20267;-44
2023/06/08 02:36:40;;;;;;;4.20;3.43;;;;;;;16.41;83.25;94625.31;5068192;28;20693;-45
2023/06/08 02:39:07;;;;;;;5.13;3.33;;;;;;;16.57;83.62;94652.72;5069325;28;20194;-44
2023/06/08 02:41:33;;;;;;;6.20;3.37;;;;;;;16.57;83.88;94644.97;5068689;28;20193;-45
2023/06/08 02:44:00;;;;;;;4.73;3.50;;;;;;;16.55;83.81;94642.59;5069711;28;20603;-43
2023/06/08 02:46:27;;;;;;;7.10;4.10;;;;;;;16.51;84.08;94648.28;5071856;28;20573;-43
2023/06/08 02:48:54;;;;;;;4.23;3.23;;;;;;;16.51;84.33;94645.69;5065473;28;20768;-45
2023/06/08 02:51:22;;;;;;;4.00;3.60;;;;;;;16.51;84.57;94651.66;5068555;28;20190;-45
2023/06/08 02:53:48;;;;;;;3.67;3.37;;;;;;;16.52;84.73;94650.69;5069100;28;20194;-43
2023/06/08 02:56:15;;;;;;;9.83;3.30;;;;;;;16.50;84.70;94651.84;5067702;28;20205;-44
2023/06/08 02:58:46;;;;;;;4.93;3.27;;;;;;;16.51;84.61;94654.25;5068762;28;20194;-46
2023/06/08 03:01:14;;;;;;;6.30;4.13;;;;;;;16.52;84.43;94653.25;5068156;28;20637;-44
2023/06/08 03:03:42;;;;;;;4.80;3.67;;;;;;;16.55;84.38;94657.28;5068091;28;20225;-45
2023/06/08 03:06:09;;;;;;;3.63;3.33;;;;;;;16.60;84.27;94661.91;5055575;28;20190;-45
2023/06/08 03:08:37;;;;;;;6.00;3.70;;;;;;;16.60;84.32;94654.97;5048502;28;20202;-44
2023/06/08 03:11:04;;;;;;;6.90;3.50;;;;;;;16.61;84.27;94656.56;5061305;28;20229;-43
2023/06/08 03:13:31;;;;;;;5.63;3.67;;;;;;;16.64;84.03;94665.75;5068699;28;20735;-44
2023/06/08 03:15:58;;;;;;;5.80;4.10;;;;;;;16.67;83.95;94663.63;5068363;28;20220;-44
2023/06/08 03:18:25;;;;;;;5.20;3.57;;;;;;;16.70;83.71;94659.88;5068021;28;20190;-43
2023/06/08 03:20:52;;;;;;;6.73;4.07;;;;;;;16.76;83.61;94660.03;5069307;28;20178;-45
2023/06/08 03:23:20;;;;;;;4.87;3.60;;;;;;;16.80;83.49;94653.53;5067905;28;20214;-45
2023/06/08 03:25:49;;;;;;;3.70;3.40;;;;;;;16.88;83.38;94654.41;5072816;28;20182;-45
2023/06/08 03:28:16;;;;;;;9.60;4.27;;;;;;;16.88;83.24;94651.81;5074530;28;20282;-45
2023/06/08 03:30:43;;;;;;;5.20;4.20;;;;;;;16.95;82.85;94655.31;5048688;28;20183;-45
2023/06/08 03:33:11;;;;;;;5.90;3.63;;;;;;;17.03;82.70;94660.38;5066255;28;20183;-46
2023/06/08 03:35:38;;;;;;;5.23;3.70;;;;;;;17.08;82.65;94655.50;5068715;28;20225;-44
2023/06/08 03:38:05;;;;;;;12.67;4.27;;;;;;;17.15;82.19;94660.75;5068947;28;20222;-45
2023/06/08 03:40:32;;;;;;;6.63;3.73;;;;;;;17.16;81.96;94664.94;5068948;28;20685;-45
2023/06/08 03:43:00;;;;;;;3.93;3.37;;;;;;;17.27;81.57;94674.81;5069226;28;20191;-43
2023/06/08 03:45:27;;;;;;;4.57;3.50;;;;;;;17.30;81.35;94667.50;5068586;28;20621;-45
2023/06/08 03:47:55;;;;;;;6.50;3.87;;;;;;;17.34;80.93;94672.31;5071616;28;20190;-44
2023/06/08 03:50:21;;;;;;;4.33;3.70;;;;;;;17.44;80.59;94676.25;5072413;28;20646;-42
2023/06/08 03:52:48;;;;;;;5.67;4.03;;;;;;;17.44;80.13;94668.50;5072631;28;20182;-46
2023/06/08 03:55:16;;;;;;;6.97;4.10;;;;;;;17.53;80.02;94682.13;5072424;28;20178;-44
2023/06/08 03:57:43;;;;;;;5.57;4.20;;;;;;;17.57;79.68;94673.00;5072873;28;20215;-47
2023/06/08 04:00:13;;;;;;;5.37;4.27;;;;;;;17.65;79.48;94675.47;5072387;28;20234;-45
2023/06/08 04:02:40;;;;;;;5.83;3.90;;;;;;;17.73;79.10;94672.78;5072727;28;20190;-45
2023/06/08 04:05:08;;;;;;;6.80;4.30;;;;;;;17.79;78.80;94677.28;5071554;28;20206;-45
2023/06/08 04:07:36;;;;;;;4.97;4.10;;;;;;;17.87;78.67;94678.13;5072017;28;20259;-45
2023/06/08 04:10:04;;;;;;;7.60;4.17;;;;;;;17.96;78.23;94679.63;5071868;28;20247;-45
2023/06/08 04:12:31;;;;;;;4.50;4.07;;;;;;;18.05;78.10;94681.13;5072124;28;20205;-43
2023/06/08 04:14:58;;;;;;;5.80;3.70;;;;;;;18.07;77.71;94679.16;5071450;28;20189;-43
2023/06/08 04:17:27;;;;;;;4.87;4.17;;;;;;;18.10;77.51;94675.41;5070838;28;20299;-44
2023/06/08 04:19:54;;;;;;;7.17;4.50;;;;;;;18.05;77.24;94657.84;5071448;28;20198;-44
2023/06/08 04:22:21;;;;;;;9.07;4.90;;;;;;;18.27;76.85;94677.56;5072146;28;20577;-45
2023/06/08 04:24:47;;;;;;;6.90;3.50;;;;;;;18.35;76.50;94671.47;5072032;28;20197;-44
2023/06/08 04:27:16;;;;;;;8.13;4.43;;;;;;;18.39;76.45;94680.44;5071653;28;20190;-44
2023/06/08 04:29:42;;;;;;;5.17;4.43;;;;;;;18.43;76.35;94679.06;5072121;28;20186;-44
2023/06/08 04:32:10;;;;;;;4.83;3.93;;;;;;;18.51;76.10;94675.56;5071435;28;20190;-44
2023/06/08 04:34:38;;;;;;;5.50;3.93;;;;;;;18.60;75.72;94678.81;5071596;28;20724;-42
2023/06/08 04:37:05;;;;;;;7.27;4.73;;;;;;;18.64;75.40;94677.47;5071601;28;20249;-42
2023/06/08 04:39:32;;;;;;;4.87;4.13;;;;;;;18.52;74.86;94654.69;5071463;28;20190;-44
2023/06/08 04:41:59;;;;;;;5.60;3.83;;;;;;;18.70;74.73;94684.53;5071355;28;20186;-45
2023/06/08 04:44:31;;;;;;;4.67;3.97;;;;;;;18.62;74.89;94661.31;5071461;28;20686;-45
2023/06/08 04:46:59;;;;;;;5.77;4.37;;;;;;;18.39;75.26;94614.91;5071745;28;20251;-44
2023/06/08 04:49:30;;;;;;;5.47;4.10;;;;;;;18.94;74.71;94683.28;5071344;28;20198;-46
2023/06/08 04:51:59;;;;;;;12.50;4.70;;;;;;;19.01;74.38;94691.91;5071220;28;20670;-44
2023/06/08 04:54:28;;;;;;;4.23;3.83;;;;;;;19.00;73.94;94672.97;5070936;28;20192;-45
2023/06/08 04:56:58;;;;;;;5.40;4.00;;;;;;;19.12;73.74;94685.41;5071334;28;20214;-44
2023/06/08 04:59:25;;;;;;;8.47;4.30;;;;;;;19.15;73.67;94680.63;5070059;28;20995;-45
2023/06/08 05:01:52;;;;;;;8.93;4.10;;;;;;;19.26;73.36;94679.31;5070020;28;20593;-45
2023/06/08 05:04:19;;;;;;;5.93;4.37;;;;;;;19.34;73.27;94683.53;5069669;28;20347;-43
2023/06/08 05:06:46;;;;;;;7.17;3.97;;;;;;;19.43;72.84;94685.78;5050791;28;20689;-42
2023/06/08 05:09:14;;;;;;;6.20;4.17;;;;;;;19.59;72.25;94679.44;5051108;28;20732;-45
2023/06/08 05:11:41;;;;;;;4.70;4.10;;;;;;;19.86;71.63;94688.19;5051256;28;20183;-44
2023/06/08 05:14:10;;;;;;;8.80;4.40;;;;;;;20.23;70.83;94686.06;5051205;28;20191;-44
2023/06/08 05:16:37;;;;;;;4.57;4.03;;;;;;;20.62;69.57;94682.72;5050870;28;20229;-46
2023/06/08 05:19:04;;;;;;;8.23;3.88;;;;;;;21.05;66.83;94683.09;5051049;28;20389;-43
2023/06/08 05:21:31;;;;;;;3.88;3.53;;;;;;;21.37;66.43;94672.06;5051350;28;20643;-47
2023/06/08 05:23:58;;;;;;;5.63;3.92;;;;;;;21.87;65.60;94685.28;5051391;28;20183;-44
2023/06/08 05:26:26;;;;;;;5.75;3.97;;;;;;;22.28;63.75;94677.09;5051433;28;20628;-46
2023/06/08 05:28:53;;;;;;;13.18;4.18;;;;;;;22.50;61.93;94659.28;5051700;28;20202;-47
2023/06/08 05:31:20;;;;;;;6.55;4.10;;;;;;;23.02;60.54;94688.56;5051661;28;20245;-45
2023/06/08 05:33:46;;;;;;;5.50;4.43;;;;;;;23.41;58.40;94690.00;5051259;28;20229;-45
2023/06/08 05:36:14;;;;;;;9.43;4.22;;;;;;;23.45;58.86;94696.38;5051458;28;20567;-47
2023/06/08 05:38:41;;;;;;;7.68;4.35;;;;;;;23.75;58.36;94696.47;5050876;28;20222;-45
2023/06/08 05:41:07;;;;;;;5.28;3.85;;;;;;;24.15;55.92;94701.19;5050861;28;20195;-44
2023/06/08 05:43:36;;;;;;;6.82;3.78;;;;;;;24.23;55.30;94702.69;5050890;28;20195;-46
2023/06/08 05:46:02;;;;;;;8.82;4.10;;;;;;;24.32;56.23;94697.97;5050775;28;20571;-45
2023/06/08 05:48:29;;;;;;;6.25;4.07;;;;;;;24.69;55.35;94691.56;5050725;28;20195;-46
2023/06/08 05:50:56;;;;;;;6.22;3.70;;;;;;;24.96;54.05;94688.56;5050609;28;20671;-43
2023/06/08 05:53:23;;;;;;;7.55;4.00;;;;;;;25.19;53.37;94690.41;5051095;28;20183;-45
2023/06/08 05:55:50;;;;;;;10.05;3.80;;;;;;;25.42;52.76;94690.34;5050362;28;20195;-45
2023/06/08 05:58:18;;;;;;;6.60;4.40;;;;;;;25.63;52.62;94688.97;5050347;28;20226;-44
2023/06/08 06:00:46;;;;;;;4.40;3.42;;;;;;;25.90;52.26;94688.47;5050171;28;20194;-46
2023/06/08 06:03:13;;;;;;;6.63;3.33;;;;;;;25.99;51.33;94693.13;5050300;28;20202;-45
2023/06/08 06:05:40;;;;;;;4.47;3.70;;;;;;;26.26;50.31;94688.09;5050272;28;20191;-45
2023/06/08 06:08:06;;;;;;;6.30;4.13;;;;;;;26.46;49.75;94689.50;5050328;28;20201;-45
2023/06/08 06:10:33;;;;;;;6.18;3.75;;;;;;;26.50;49.49;94691.41;5050203;28;20179;-44
2023/06/08 06:13:00;;;;;;;9.57;3.88;;;;;;;26.61;49.25;94696.84;5050708;28;20184;-45
2023/06/08 06:15:27;;;;;;;5.80;3.83;;;;;;;26.54;49.01;94688.31;5050014;28;20341;-46
2023/06/08 06:17:55;;;;;;;8.82;4.38;;;;;;;26.51;49.07;94697.44;5049972;28;20226;-46
2023/06/08 06:20:23;;;;;;;6.38;3.47;;;;;;;26.47;49.20;94688.50;5049774;28;20661;-46
2023/06/08 06:22:50;;;;;;;6.20;3.17;;;;;;;26.57;48.30;94686.03;5050539;28;20218;-44
2023/06/08 06:25:17;;;;;;;5.03;3.55;;;;;;;26.66;47.85;94695.09;5049824;28;20191;-45
2023/06/08 06:27:44;;;;;;;4.18;3.42;;;;;;;26.46;47.57;94687.69;5050029;28;20190;-45
2023/06/08 06:30:11;;;;;;;8.20;3.55;;;;;;;26.26;48.53;94689.94;5050538;28;20191;-45
2023/06/08 06:32:38;;;;;;;7.32;3.22;;;;;;;26.36;48.89;94686.69;5050338;28;20187;-44
2023/06/08 06:35:06;;;;;;;4.97;3.63;;;;;;;26.59;47.44;94686.56;5050593;28;20714;-45
2023/06/08 06:37:34;;;;;;;5.28;3.80;;;;;;;26.60;47.21;94684.75;5049978;28;20211;-44
2023/06/08 06:40:01;;;;;;;4.90;3.58;;;;;;;26.61;47.79;94668.00;5050121;28;20194;-48
2023/06/08 06:42:28;;;;;;;7.53;3.83;;;;;;;26.87;47.74;94669.19;5049993;28;20194;-45
2023/06/08 06:44:55;;;;;;;5.05;3.53;;;;;;;27.07;47.05;94676.53;5050201;28;20191;-47
2023/06/08 06:47:21;;;;;;;5.95;3.40;;;;;;;27.21;45.76;94678.63;5049868;28;20179;-47
2023/06/08 06:49:48;;;;;;;5.47;3.38;;;;;;;27.22;46.96;94682.84;5049592;28;20650;-45
2023/06/08 06:52:16;;;;;;;4.82;2.88;;;;;;;27.33;46.36;94677.72;5049444;28;20198;-46
2023/06/08 06:54:43;;;;;;;6.65;4.00;;;;;;;27.32;46.03;94673.50;5049438;28;20608;-45
2023/06/08 06:57:10;;;;;;;5.15;3.17;;;;;;;27.56;45.29;94674.09;5049857;28;20190;-47
2023/06/08 06:59:37;;;;;;;12.48;4.03;;;;;;;27.45;45.60;94660.81;5049856;28;20204;-46
2023/06/08 07:02:04;;;;;;;5.10;3.72;;;;;;;27.41;45.81;94669.44;5049599;28;20574;-46
2023/06/08 07:04:31;;;;;;;4.95;3.28;;;;;;;27.42;45.35;94665.78;5049087;28;20218;-44
2023/06/08 07:06:58;;;;;;;9.02;3.38;;;;;;;27.61;45.45;94667.06;5049343;28;20222;-47
2023/06/08 07:09:26;;;;;;;5.57;3.35;;;;;;;27.78;45.24;94664.41;5049438;28;20187;-46
2023/06/08 07:11:54;;;;;;;5.78;3.90;;;;;;;27.98;44.76;94663.84;5049559;28;20190;-47
2023/06/08 07:14:20;;;;;;;5.53;3.55;;;;;;;28.25;44.34;94663.84;5049292;28;20199;-47
2023/06/08 07:16:47;;;;;;;6.65;4.25;;;;;;;28.44;43.47;94659.03;5049203;28;20249;-44
2023/06/08 07:19:14;;;;;;;5.47;3.72;;;;;;;28.36;43.18;94654.22;5049285;28;20223;-45
2023/06/08 07:21:41;;;;;;;5.57;3.80;;;;;;;28.12;43.68;94661.63;5050088;28;20241;-46
2023/06/08 07:24:08;;;;;;;7.80;3.47;;;;;;;27.84;44.86;94660.00;5053214;28;20586;-44
2023/06/08 07:26:36;;;;;;;6.85;3.88;;;;;;;27.86;45.02;94656.09;5053796;28;20568;-46
2023/06/08 07:29:03;;;;;;;8.98;4.05;;;;;;;27.72;45.03;94641.69;5052958;28;20187;-45
2023/06/08 07:31:31;;;;;;;6.15;4.38;;;;;;;27.79;45.33;94662.56;5053312;28;20205;-47
2023/06/08 07:33:58;;;;;;;8.00;4.78;;;;;;;27.87;45.58;94656.88;5052975;28;20222;-46
2023/06/08 07:36:28;;;;;;;4.43;3.60;;;;;;;27.97;44.91;94642.00;5053376;28;20187;-45
2023/06/08 07:38:56;;;;;;;8.10;3.50;;;;;;;28.21;44.77;94650.41;5052765;28;20254;-46
2023/06/08 07:41:24;;;;;;;10.65;3.95;;;;;;;28.40;43.89;94640.31;5052991;28;20650;-46
2023/06/08 07:43:52;;;;;;;4.00;3.60;;;;;;;28.46;44.32;94639.34;5053221;28;20559;-45
2023/06/08 07:46:19;;;;;;;7.82;3.60;;;;;;;28.60;43.72;94644.97;5052983;28;20179;-46
2023/06/08 07:48:46;;;;;;;5.57;3.10;;;;;;;28.67;43.90;94647.38;5053026;28;20395;-44
2023/06/08 07:51:13;;;;;;;9.32;4.07;;;;;;;28.74;44.41;94650.59;5052514;28;20244;-47
2023/06/08 07:53:40;;;;;;;7.55;3.50;;;;;;;28.78;44.21;94643.00;5052669;28;20289;-47
2023/06/08 07:56:07;;;;;;;5.50;3.63;;;;;;;28.92;43.76;94633.59;5052527;28;20195;-46
2023/06/08 07:58:34;;;;;;;5.03;3.67;;;;;;;29.00;43.81;94639.22;5052849;28;20227;-44
2023/06/08 08:01:03;;;;;;;7.53;4.05;;;;;;;28.90;44.35;94636.50;5052294;28;20218;-47
2023/06/08 08:03:30;;;;;;;4.72;4.00;;;;;;;28.61;44.54;94628.13;5052416;28;20563;-46
2023/06/08 08:05:57;;;;;;;4.63;3.45;;;;;;;28.77;45.00;94646.69;5052419;28;20257;-45
2023/06/08 08:08:24;;;;;;;7.28;3.90;;;;;;;28.50;44.70;94582.53;5052076;28;20199;-48
2023/06/08 08:10:51;;;;;;;5.07;3.75;;;;;;;29.04;44.66;94639.50;5051959;28;20272;-45
2023/06/08 08:13:18;;;;;;;6.55;3.60;;;;;;;29.12;44.45;94640.88;5052222;28;20260;-44
2023/06/08 08:15:45;;;;;;;3.50;3.20;;;;;;;29.33;43.69;94642.59;5052120;28;20246;-45
2023/06/08 08:18:13;;;;;;;6.50;3.90;;;;;;;29.25;43.70;94625.41;5052385;28;20223;-45
2023/06/08 08:20:40;;;;;;;10.25;3.80;;;;;;;29.39;43.92;94638.13;5051859;28;20223;-46
2023/06/08 08:23:07;;;;;;;4.68;3.58;;;;;;;29.42;43.70;94629.72;5051832;28;20183;-43
2023/06/08 08:25:34;;;;;;;5.30;3.38;;;;;;;29.28;43.66;94623.31;5052269;28;20186;-44
2023/06/08 08:28:01;;;;;;;6.60;5.07;;;;;;;29.15;44.30;94633.28;5051642;28;20195;-43
2023/06/08 08:30:28;;;;;;;6.18;4.03;;;;;;;29.15;43.79;94635.91;5051838;28;20187;-45
2023/06/08 08:32:55;;;;;;;5.55;3.08;;;;;;;29.22;43.42;94628.53;5051577;28;20195;-46
2023/06/08 08:35:28;;;;;;;7.03;3.78;;;;;;;29.21;43.99;94634.09;5052088;28;20635;-45
2023/06/08 08:37:55;;;;;;;5.78;3.60;;;;;;;29.30;43.81;94622.00;5051474;28;20584;-44
2023/06/08 08:40:22;;;;;;;4.75;3.35;;;;;;;29.34;43.51;94628.34;5051633;28;20285;-45
2023/06/08 08:42:56;;;;;;;5.65;3.65;;;;;;;29.22;44.10;94622.50;5051943;28;20583;-46
2023/06/08 08:45:28;;;;;;;6.18;3.60;;;;;;;29.13;44.17;94622.19;5051768;28;20194;-44
2023/06/08 08:47:56;;;;;;;5.15;3.78;;;;;;;29.07;43.94;94620.59;5051286;28;20240;-45
2023/06/08 08:50:25;;;;;;;10.20;4.07;;;;;;;29.13;44.34;94627.44;5051520;28;20663;-44
2023/06/08 08:52:56;;;;;;;9.35;3.70;;;;;;;29.03;44.80;94621.34;5051342;28;20190;-42
2023/06/08 08:55:27;;;;;;;7.78;3.58;;;;;;;28.91;44.74;94629.41;5051575;28;20677;-47
2023/06/08 08:57:57;;;;;;;5.35;3.92;;;;;;;28.84;44.66;94623.53;5051495;28;20260;-44
2023/06/08 09:00:24;;;;;;;3.40;3.10;;;;;;;28.83;45.01;94619.34;5051411;28;20241;-46
2023/06/08 09:02:52;;;;;;;3.47;3.17;;;;;;;28.77;45.14;94621.16;5050976;28;20240;-47
2023/06/08 09:05:19;;;;;;;6.35;3.20;;;;;;;28.62;45.35;94627.09;5051257;28;20191;-44
2023/06/08 09:07:47;;;;;;;3.95;3.50;;;;;;;28.56;44.95;94622.84;5051339;28;20256;-47
2023/06/08 09:10:16;;;;;;;4.40;3.08;;;;;;;28.47;45.15;94614.63;5051285;28;20199;-44
2023/06/08 09:12:45;;;;;;;6.15;3.40;;;;;;;28.50;44.99;94608.84;5051021;28;20191;-44
2023/06/08 09:15:13;;;;;;;3.85;3.42;;;;;;;28.47;45.99;94617.25;5050880;28;20207;-45
2023/06/08 09:17:40;;;;;;;3.78;3.42;;;;;;;28.46;45.96;94609.63;5050960;28;20909;-44
2023/06/08 09:20:09;;;;;;;5.63;3.45;;;;;;;28.53;45.48;94607.53;5050985;28;20314;-45
2023/06/08 09:22:36;;;;;;;4.50;3.70;;;;;;;28.44;45.55;94612.47;5051053;28;20183;-44
2023/06/08 09:25:05;;;;;;;9.23;3.42;;;;;;;28.39;45.01;94609.03;5050709;28;20202;-46
2023/06/08 09:27:32;;;;;;;7.25;3.30;;;;;;;28.45;45.22;94608.81;5050989;28;20187;-45
2023/06/08 09:29:59;;;;;;;4.88;3.30;;;;;;;28.45;45.37;94602.75;5050883;28;20183;-46
2023/06/08 09:32:32;;;;;;;5.35;4.55;;;;;;;28.15;45.50;94569.06;5064656;28;20191;-45
2023/06/08 09:35:01;;;;;;;4.18;3.28;;;;;;;28.30;46.07;94602.59;5070548;28;20202;-44
2023/06/08 09:37:29;;;;;;;5.03;3.28;;;;;;;28.26;45.77;94599.66;5070713;28;20195;-45
2023/06/08 09:39:56;;;;;;;4.00;3.30;;;;;;;28.34;44.95;94590.53;5070680;28;20592;-44
2023/06/08 09:42:40;;;;;;;5.57;3.10;;;;;;;28.41;44.94;94597.22;5070823;28;20256;-45
2023/06/08 09:45:10;;;;;;;5.03;3.22;;;;;;;28.34;44.73;94586.06;5070457;28;20571;-52
2023/06/08 09:47:37;;;;;;;13.80;4.70;;;;;;;28.20;45.55;94590.16;5070499;28;20285;-47
2023/06/08 09:50:08;;;;;;;3.10;2.90;;;;;;;28.13;45.68;94573.78;5070612;28;20191;-48
2023/06/08 09:52:37;;;;;;;6.38;3.75;;;;;;;28.23;46.11;94582.53;5070674;28;20200;-44
2023/06/08 09:55:05;;;;;;;3.65;3.15;;;;;;;28.14;45.66;94570.09;5070424;28;20186;-43
2023/06/08 09:57:36;;;;;;;5.30;3.60;;;;;;;28.03;45.71;94574.50;5071535;28;20190;-45
2023/06/08 10:00:13;;;;;;;3.40;3.17;;;;;;;28.02;46.24;94578.16;5071357;28;20279;-43
2023/06/08 10:02:45;;;;;;;4.28;3.17;;;;;;;28.00;46.06;94570.53;5070814;28;20178;-50
2023/06/08 10:05:15;;;;;;;11.07;3.83;;;;;;;27.85;46.34;94559.06;5070796;28;20186;-47
2023/06/08 10:07:45;;;;;;;4.00;3.33;;;;;;;27.91;46.68;94564.13;5072091;28;20285;-44
2023/06/08 10:10:16;;;;;;;5.35;3.97;;;;;;;27.84;45.93;94570.63;5071793;28;20609;-47
2023/06/08 10:12:45;;;;;;;5.25;3.60;;;;;;;27.75;46.55;94565.81;5071430;28;20244;-46
2023/06/08 10:15:12;;;;;;;5.63;3.25;;;;;;;27.75;46.35;94565.81;5071683;28;20187;-47
2023/06/08 10:17:40;;;;;;;6.38;3.30;;;;;;;27.58;46.69;94559.81;5071949;28;20244;-46
2023/06/08 10:20:08;;;;;;;4.80;2.92;;;;;;;27.36;47.21;94532.78;5071452;28;20226;-43
2023/06/08 10:22:37;;;;;;;4.68;3.40;;;;;;;27.60;46.86;94541.19;5072074;28;20208;-45
2023/06/08 10:25:06;;;;;;;8.20;3.03;;;;;;;27.62;46.39;94549.63;5071598;28;20650;-45
2023/06/08 10:27:34;;;;;;;5.15;3.22;;;;;;;27.56;46.41;94545.38;5071636;28;20276;-46
2023/06/08 10:30:04;;;;;;;6.43;3.20;;;;;;;27.54;46.93;94540.34;5071141;28;20267;-46
2023/06/08 10:32:32;;;;;;;5.72;3.25;;;;;;;27.56;46.72;94548.00;5071803;28;20183;-47
2023/06/08 10:35:02;;;;;;;7.95;4.38;;;;;;;27.42;47.12;94548.38;5071067;28;20273;-44
2023/06/08 10:37:31;;;;;;;3.85;3.10;;;;;;;27.47;46.87;94550.25;5071045;28;20195;-45
2023/06/08 10:40:00;;;;;;;7.68;3.30;;;;;;;27.51;46.41;94532.97;5069837;28;20267;-44
2023/06/08 10:42:27;;;;;;;4.22;3.03;;;;;;;27.61;46.72;94534.91;5069706;28;20179;-46
2023/06/08 10:44:56;;;;;;;4.03;3.25;;;;;;;27.77;45.85;94536.66;5069594;28;20235;-44
2023/06/08 10:47:28;;;;;;;5.43;3.15;;;;;;;27.74;45.94;94519.56;5069810;28;20187;-44
2023/06/08 10:49:58;;;;;;;3.83;2.78;;;;;;;27.66;45.92;94527.84;5066335;28;20276;-46
2023/06/08 10:52:26;;;;;;;3.90;3.42;;;;;;;27.65;45.88;94518.38;5067746;28;20198;-48
2023/06/08 10:54:57;;;;;;;3.35;2.70;;;;;;;27.61;46.06;94512.03;5069565;28;20282;-45
2023/06/08 10:57:38;;;;;;;5.13;3.13;;;;;;;27.64;46.64;94510.75;5068809;28;20277;-46
2023/06/08 11:00:47;;;;;;;4.57;3.10;;;;;;;27.67;46.55;94503.16;5068041;28;20226;-46
2023/06/08 11:03:20;;;;;;;4.00;3.15;;;;;;;27.66;46.41;94501.56;5069090;28;20220;-46
2023/06/08 11:05:53;;;;;;;3.17;2.88;;;;;;;27.58;46.47;94498.59;5069315;28;20202;-46
2023/06/08 11:08:20;;;;;;;4.47;3.22;;;;;;;27.56;46.53;94490.97;5069277;28;20625;-44
2023/06/08 11:10:53;;;;;;;4.22;2.72;;;;;;;27.66;46.80;94491.06;5069214;28;20197;-46
2023/06/08 11:13:20;;;;;;;3.90;3.20;;;;;;;27.79;46.71;94482.00;5069365;28;20182;-45
2023/06/08 11:15:47;;;;;;;3.25;2.55;;;;;;;27.80;46.79;94486.22;5069116;28;20636;-46
2023/06/08 11:18:19;;;;;;;5.57;2.85;;;;;;;27.83;46.20;94482.31;5069259;28;20248;-44
2023/06/08 11:20:46;;;;;;;3.55;3.25;;;;;;;27.63;45.86;94486.28;5069058;28;20237;-45
2023/06/08 11:23:14;;;;;;;3.63;3.33;;;;;;;27.52;45.87;94479.38;5069246;28;20234;-44
2023/06/08 11:25:42;;;;;;;6.75;3.13;;;;;;;27.51;46.67;94483.84;5069254;28;20186;-44
2023/06/08 11:28:08;;;;;;;3.70;3.00;;;;;;;27.57;46.15;94466.28;5069130;28;20669;-44
2023/06/08 11:30:36;;;;;;;12.73;6.28;;;;;;;27.64;45.59;94473.97;5068993;28;20195;-45
2023/06/08 11:33:05;;;;;;;6.55;3.30;;;;;;;27.69;45.60;94464.28;5069286;28;20225;-44
2023/06/08 11:35:33;;;;;;;3.67;2.58;;;;;;;27.80;44.37;94464.41;5068832;28;20734;-43
2023/06/08 11:38:01;;;;;;;2.80;2.53;;;;;;;27.81;43.46;94456.28;5069311;28;20229;-46